sensor_id;sensor_type;location;lat;lon;timestamp;temperature;humidity
11532;DHT22;5822;51.000;5.874;2023-05-10T00:00:47;16.10;99.90
11532;DHT22;5822;51.000;5.874;2023-05-10T00:03:12;16.10;99.90
11532;DHT22;5822;51.000;5.874;2023-05-10T00:05:38;16.00;99.90
11532;DHT22;5822;51.000;5.874;2023-05-10T00:08:04;16.00;99.90
11532;DHT22;5822;51.000;5.874;2023-05-10T00:10:29;15.90;99.90
11532;DHT22;5822;51.000;5.874;2023-05-10T00:12:55;15.90;99.90
11532;DHT22;5822;51.000;5.874;2023-05-10T00:15:21;16.00;99.90
11532;DHT22;5822;51.000;5.874;2023-05-10T00:17:46;16.00;99.90
11532;DHT22;5822;51.000;5.874;2023-05-10T00:20:12;15.90;99.90
11532;DHT22;5822;51.000;5.874;2023-05-10T00:22:38;16.00;99.90
11532;DHT22;5822;51.000;5.874;2023-05-10T00:25:04;16.00;99.90
11532;DHT22;5822;51.000;5.874;2023-05-10T00:27:30;16.10;99.90
11532;DHT22;5822;51.000;5.874;2023-05-10T00:29:55;16.10;99.90
11532;DHT22;5822;51.000;5.874;2023-05-10T00:32:21;16.10;99.90
11532;DHT22;5822;51.000;5.874;2023-05-10T00:34:46;16.10;99.90
11532;DHT22;5822;51.000;5.874;2023-05-10T00:37:12;16.10;99.90
11532;DHT22;5822;51.000;5.874;2023-05-10T00:39:38;16.10;99.90
11532;DHT22;5822;51.000;5.874;2023-05-10T00:42:03;16.10;99.90
11532;DHT22;5822;51.000;5.874;2023-05-10T00:44:29;16.10;99.90
11532;DHT22;5822;51.000;5.874;2023-05-10T00:46:57;16.10;99.90
11532;DHT22;5822;51.000;5.874;2023-05-10T00:49:23;16.10;99.90
11532;DHT22;5822;51.000;5.874;2023-05-10T00:51:49;16.10;99.90
11532;DHT22;5822;51.000;5.874;2023-05-10T00:54:18;16.00;99.90
11532;DHT22;5822;51.000;5.874;2023-05-10T00:56:44;16.00;99.90
11532;DHT22;5822;51.000;5.874;2023-05-10T00:59:15;16.00;99.90
11532;DHT22;5822;51.000;5.874;2023-05-10T01:01:42;16.10;99.90
11532;DHT22;5822;51.000;5.874;2023-05-10T01:04:08;16.00;99.90
11532;DHT22;5822;51.000;5.874;2023-05-10T01:06:35;16.00;99.90
11532;DHT22;5822;51.000;5.874;2023-05-10T01:09:01;16.00;99.90
11532;DHT22;5822;51.000;5.874;2023-05-10T01:11:27;16.10;99.90
11532;DHT22;5822;51.000;5.874;2023-05-10T01:13:56;16.10;99.90
11532;DHT22;5822;51.000;5.874;2023-05-10T01:16:23;16.00;99.90
11532;DHT22;5822;51.000;5.874;2023-05-10T01:18:51;16.10;99.90
11532;DHT22;5822;51.000;5.874;2023-05-10T01:30:25;16.20;99.90
11532;DHT22;5822;51.000;5.874;2023-05-10T01:33:10;16.20;99.90
11532;DHT22;5822;51.000;5.874;2023-05-10T01:43:28;16.20;99.90
11532;DHT22;5822;51.000;5.874;2023-05-10T01:49:23;16.20;99.90
11532;DHT22;5822;51.000;5.874;2023-05-10T01:51:52;16.10;99.90
11532;DHT22;5822;51.000;5.874;2023-05-10T01:54:21;16.10;99.90
11532;DHT22;5822;51.000;5.874;2023-05-10T01:56:55;16.10;99.90
11532;DHT22;5822;51.000;5.874;2023-05-10T01:59:22;16.10;99.90
11532;DHT22;5822;51.000;5.874;2023-05-10T02:01:51;16.00;99.90
11532;DHT22;5822;51.000;5.874;2023-05-10T02:04:18;16.00;99.90
11532;DHT22;5822;51.000;5.874;2023-05-10T02:06:46;16.00;99.90
11532;DHT22;5822;51.000;5.874;2023-05-10T02:09:14;16.00;99.90
11532;DHT22;5822;51.000;5.874;2023-05-10T02:11:42;16.10;99.90
11532;DHT22;5822;51.000;5.874;2023-05-10T02:14:09;16.10;99.90
11532;DHT22;5822;51.000;5.874;2023-05-10T02:16:37;16.00;99.90
11532;DHT22;5822;51.000;5.874;2023-05-10T02:19:05;15.90;99.90
11532;DHT22;5822;51.000;5.874;2023-05-10T02:21:31;16.00;99.90
11532;DHT22;5822;51.000;5.874;2023-05-10T02:23:59;16.00;99.90
11532;DHT22;5822;51.000;5.874;2023-05-10T02:26:27;15.90;99.90
11532;DHT22;5822;51.000;5.874;2023-05-10T02:28:53;15.90;99.90
11532;DHT22;5822;51.000;5.874;2023-05-10T02:31:21;15.90;99.90
11532;DHT22;5822;51.000;5.874;2023-05-10T02:33:48;15.90;99.90
11532;DHT22;5822;51.000;5.874;2023-05-10T02:36:15;15.90;99.90
11532;DHT22;5822;51.000;5.874;2023-05-10T02:38:41;15.90;99.90
11532;DHT22;5822;51.000;5.874;2023-05-10T02:41:08;15.90;99.90
11532;DHT22;5822;51.000;5.874;2023-05-10T02:43:35;15.80;99.90
11532;DHT22;5822;51.000;5.874;2023-05-10T02:46:03;15.80;99.90
11532;DHT22;5822;51.000;5.874;2023-05-10T02:48:29;15.70;99.90
11532;DHT22;5822;51.000;5.874;2023-05-10T02:50:56;15.70;99.90
11532;DHT22;5822;51.000;5.874;2023-05-10T02:53:36;15.80;99.90
11532;DHT22;5822;51.000;5.874;2023-05-10T02:56:13;15.80;99.90
11532;DHT22;5822;51.000;5.874;2023-05-10T02:58:40;15.70;99.90
11532;DHT22;5822;51.000;5.874;2023-05-10T03:01:06;15.80;99.90
11532;DHT22;5822;51.000;5.874;2023-05-10T03:03:33;15.80;99.90
11532;DHT22;5822;51.000;5.874;2023-05-10T03:05:58;15.80;99.90
11532;DHT22;5822;51.000;5.874;2023-05-10T03:08:24;15.80;99.90
11532;DHT22;5822;51.000;5.874;2023-05-10T03:11:21;15.80;99.90
11532;DHT22;5822;51.000;5.874;2023-05-10T03:17:06;15.90;99.90
11532;DHT22;5822;51.000;5.874;2023-05-10T03:19:41;15.80;99.90
11532;DHT22;5822;51.000;5.874;2023-05-10T03:22:10;15.60;99.90
11532;DHT22;5822;51.000;5.874;2023-05-10T03:24:36;15.50;99.90
11532;DHT22;5822;51.000;5.874;2023-05-10T03:27:05;15.50;99.90
11532;DHT22;5822;51.000;5.874;2023-05-10T03:29:31;15.40;99.90
11532;DHT22;5822;51.000;5.874;2023-05-10T03:32:00;15.60;99.90
11532;DHT22;5822;51.000;5.874;2023-05-10T03:34:26;15.70;99.90
11532;DHT22;5822;51.000;5.874;2023-05-10T03:36:52;15.70;99.90
11532;DHT22;5822;51.000;5.874;2023-05-10T03:39:18;15.60;99.90
11532;DHT22;5822;51.000;5.874;2023-05-10T03:41:43;15.60;99.90
11532;DHT22;5822;51.000;5.874;2023-05-10T03:44:09;15.60;99.90
11532;DHT22;5822;51.000;5.874;2023-05-10T03:46:35;15.60;99.90
11532;DHT22;5822;51.000;5.874;2023-05-10T03:49:00;15.50;99.90
11532;DHT22;5822;51.000;5.874;2023-05-10T03:51:26;15.60;99.90
11532;DHT22;5822;51.000;5.874;2023-05-10T03:53:54;15.60;99.90
11532;DHT22;5822;51.000;5.874;2023-05-10T03:56:20;15.50;99.90
11532;DHT22;5822;51.000;5.874;2023-05-10T03:58:46;15.50;99.90
11532;DHT22;5822;51.000;5.874;2023-05-10T04:01:12;15.50;99.90
11532;DHT22;5822;51.000;5.874;2023-05-10T04:03:37;15.50;99.90
11532;DHT22;5822;51.000;5.874;2023-05-10T04:06:04;15.50;99.90
11532;DHT22;5822;51.000;5.874;2023-05-10T04:08:30;15.50;99.90
11532;DHT22;5822;51.000;5.874;2023-05-10T04:13:32;15.50;99.90
11532;DHT22;5822;51.000;5.874;2023-05-10T04:15:58;15.50;99.90
11532;DHT22;5822;51.000;5.874;2023-05-10T04:18:24;15.50;99.90
11532;DHT22;5822;51.000;5.874;2023-05-10T04:20:49;15.60;99.90
11532;DHT22;5822;51.000;5.874;2023-05-10T04:23:15;15.60;99.90
11532;DHT22;5822;51.000;5.874;2023-05-10T04:25:42;15.70;99.90
11532;DHT22;5822;51.000;5.874;2023-05-10T04:28:07;15.60;99.90
11532;DHT22;5822;51.000;5.874;2023-05-10T04:30:34;15.60;99.90
11532;DHT22;5822;51.000;5.874;2023-05-10T04:33:00;15.60;99.90
11532;DHT22;5822;51.000;5.874;2023-05-10T04:35:27;15.60;99.90
11532;DHT22;5822;51.000;5.874;2023-05-10T04:37:53;15.80;99.90
11532;DHT22;5822;51.000;5.874;2023-05-10T04:40:19;15.80;99.90
11532;DHT22;5822;51.000;5.874;2023-05-10T04:42:46;15.80;99.90
11532;DHT22;5822;51.000;5.874;2023-05-10T04:45:12;15.80;99.90
11532;DHT22;5822;51.000;5.874;2023-05-10T04:47:37;15.90;99.90
11532;DHT22;5822;51.000;5.874;2023-05-10T04:50:04;15.90;99.90
11532;DHT22;5822;51.000;5.874;2023-05-10T04:52:29;15.80;99.90
11532;DHT22;5822;51.000;5.874;2023-05-10T04:54:55;15.80;99.90
11532;DHT22;5822;51.000;5.874;2023-05-10T04:57:21;15.80;99.90
11532;DHT22;5822;51.000;5.874;2023-05-10T04:59:47;15.70;99.90
11532;DHT22;5822;51.000;5.874;2023-05-10T05:02:13;15.80;99.90
11532;DHT22;5822;51.000;5.874;2023-05-10T05:04:38;15.70;99.90
11532;DHT22;5822;51.000;5.874;2023-05-10T05:07:04;15.80;99.90
11532;DHT22;5822;51.000;5.874;2023-05-10T05:09:30;15.70;99.90
11532;DHT22;5822;51.000;5.874;2023-05-10T05:11:57;15.80;99.90
11532;DHT22;5822;51.000;5.874;2023-05-10T05:14:23;15.60;99.90
11532;DHT22;5822;51.000;5.874;2023-05-10T05:16:53;15.70;99.90
11532;DHT22;5822;51.000;5.874;2023-05-10T05:19:19;15.70;99.90
11532;DHT22;5822;51.000;5.874;2023-05-10T05:21:45;15.70;99.90
11532;DHT22;5822;51.000;5.874;2023-05-10T05:24:11;15.80;99.90
11532;DHT22;5822;51.000;5.874;2023-05-10T05:26:38;15.80;99.90
11532;DHT22;5822;51.000;5.874;2023-05-10T05:29:04;15.90;99.90
11532;DHT22;5822;51.000;5.874;2023-05-10T05:31:29;15.80;99.90
11532;DHT22;5822;51.000;5.874;2023-05-10T05:33:55;15.90;99.90
11532;DHT22;5822;51.000;5.874;2023-05-10T05:36:21;15.90;99.90
11532;DHT22;5822;51.000;5.874;2023-05-10T05:38:47;16.00;99.90
11532;DHT22;5822;51.000;5.874;2023-05-10T05:41:13;16.00;99.90
11532;DHT22;5822;51.000;5.874;2023-05-10T05:43:39;16.00;99.90
11532;DHT22;5822;51.000;5.874;2023-05-10T05:46:04;16.00;99.90
11532;DHT22;5822;51.000;5.874;2023-05-10T05:48:31;15.80;99.90
11532;DHT22;5822;51.000;5.874;2023-05-10T05:50:56;15.80;99.90
11532;DHT22;5822;51.000;5.874;2023-05-10T05:53:23;15.80;99.90
11532;DHT22;5822;51.000;5.874;2023-05-10T05:55:57;15.90;99.90
11532;DHT22;5822;51.000;5.874;2023-05-10T05:58:24;15.70;99.90
11532;DHT22;5822;51.000;5.874;2023-05-10T06:00:51;15.70;99.90
11532;DHT22;5822;51.000;5.874;2023-05-10T06:03:20;15.80;99.90
11532;DHT22;5822;51.000;5.874;2023-05-10T06:05:48;15.80;99.90
11532;DHT22;5822;51.000;5.874;2023-05-10T06:08:14;15.90;99.90
11532;DHT22;5822;51.000;5.874;2023-05-10T06:10:40;15.90;99.90
11532;DHT22;5822;51.000;5.874;2023-05-10T06:13:05;16.00;99.90
11532;DHT22;5822;51.000;5.874;2023-05-10T06:15:31;16.00;99.90
11532;DHT22;5822;51.000;5.874;2023-05-10T06:17:57;16.00;99.90
11532;DHT22;5822;51.000;5.874;2023-05-10T06:20:23;16.00;99.90
11532;DHT22;5822;51.000;5.874;2023-05-10T06:22:49;16.00;99.90
11532;DHT22;5822;51.000;5.874;2023-05-10T06:25:14;16.00;99.90
11532;DHT22;5822;51.000;5.874;2023-05-10T06:27:43;16.10;99.90
11532;DHT22;5822;51.000;5.874;2023-05-10T06:30:09;16.00;99.90
11532;DHT22;5822;51.000;5.874;2023-05-10T06:32:35;16.00;99.90
11532;DHT22;5822;51.000;5.874;2023-05-10T06:35:01;16.00;99.90
11532;DHT22;5822;51.000;5.874;2023-05-10T06:37:27;16.00;99.90
11532;DHT22;5822;51.000;5.874;2023-05-10T06:39:52;16.10;99.90
11532;DHT22;5822;51.000;5.874;2023-05-10T06:42:20;16.10;99.90
11532;DHT22;5822;51.000;5.874;2023-05-10T06:44:46;16.20;99.90
11532;DHT22;5822;51.000;5.874;2023-05-10T06:47:12;16.10;99.90
11532;DHT22;5822;51.000;5.874;2023-05-10T06:49:37;16.00;99.90
11532;DHT22;5822;51.000;5.874;2023-05-10T06:52:03;16.10;99.90
11532;DHT22;5822;51.000;5.874;2023-05-10T06:54:29;16.10;99.90
11532;DHT22;5822;51.000;5.874;2023-05-10T06:56:55;16.10;99.90
11532;DHT22;5822;51.000;5.874;2023-05-10T06:59:20;16.10;99.90
11532;DHT22;5822;51.000;5.874;2023-05-10T07:01:47;16.20;99.90
11532;DHT22;5822;51.000;5.874;2023-05-10T07:04:12;16.20;99.90
11532;DHT22;5822;51.000;5.874;2023-05-10T07:06:38;16.20;99.90
11532;DHT22;5822;51.000;5.874;2023-05-10T07:09:04;16.10;99.90
11532;DHT22;5822;51.000;5.874;2023-05-10T07:11:30;16.20;99.90
11532;DHT22;5822;51.000;5.874;2023-05-10T07:13:55;16.20;99.90
11532;DHT22;5822;51.000;5.874;2023-05-10T07:16:21;16.20;99.90
11532;DHT22;5822;51.000;5.874;2023-05-10T07:18:47;16.30;99.90
11532;DHT22;5822;51.000;5.874;2023-05-10T07:21:12;16.30;99.90
11532;DHT22;5822;51.000;5.874;2023-05-10T07:23:38;16.30;99.90
11532;DHT22;5822;51.000;5.874;2023-05-10T07:26:04;16.30;99.90
11532;DHT22;5822;51.000;5.874;2023-05-10T07:28:29;16.20;99.90
11532;DHT22;5822;51.000;5.874;2023-05-10T07:30:55;16.10;99.90
11532;DHT22;5822;51.000;5.874;2023-05-10T07:33:21;16.20;99.90
11532;DHT22;5822;51.000;5.874;2023-05-10T07:35:49;16.20;99.90
11532;DHT22;5822;51.000;5.874;2023-05-10T07:38:15;16.10;99.90
11532;DHT22;5822;51.000;5.874;2023-05-10T07:40:41;16.10;99.90
11532;DHT22;5822;51.000;5.874;2023-05-10T07:43:06;16.20;99.90
11532;DHT22;5822;51.000;5.874;2023-05-10T07:45:33;16.00;99.90
11532;DHT22;5822;51.000;5.874;2023-05-10T07:47:59;16.10;99.90
11532;DHT22;5822;51.000;5.874;2023-05-10T07:50:24;16.10;99.90
11532;DHT22;5822;51.000;5.874;2023-05-10T07:52:50;16.10;99.90
11532;DHT22;5822;51.000;5.874;2023-05-10T07:55:16;16.10;99.90
11532;DHT22;5822;51.000;5.874;2023-05-10T07:57:43;16.20;99.90
11532;DHT22;5822;51.000;5.874;2023-05-10T08:00:15;16.20;99.90
11532;DHT22;5822;51.000;5.874;2023-05-10T08:02:42;16.20;99.90
11532;DHT22;5822;51.000;5.874;2023-05-10T08:05:08;16.20;99.90
11532;DHT22;5822;51.000;5.874;2023-05-10T08:07:33;16.20;99.90
11532;DHT22;5822;51.000;5.874;2023-05-10T08:09:59;16.20;99.90
11532;DHT22;5822;51.000;5.874;2023-05-10T08:12:25;16.30;99.90
11532;DHT22;5822;51.000;5.874;2023-05-10T08:14:50;16.20;99.90
11532;DHT22;5822;51.000;5.874;2023-05-10T08:17:16;16.20;99.90
11532;DHT22;5822;51.000;5.874;2023-05-10T08:19:42;16.20;99.90
11532;DHT22;5822;51.000;5.874;2023-05-10T08:22:10;16.30;99.90
11532;DHT22;5822;51.000;5.874;2023-05-10T08:24:36;16.30;99.90
11532;DHT22;5822;51.000;5.874;2023-05-10T08:27:05;16.20;99.90
11532;DHT22;5822;51.000;5.874;2023-05-10T08:29:30;16.20;99.90
11532;DHT22;5822;51.000;5.874;2023-05-10T08:31:56;16.20;99.90
11532;DHT22;5822;51.000;5.874;2023-05-10T08:34:22;16.30;99.90
11532;DHT22;5822;51.000;5.874;2023-05-10T08:36:47;16.40;99.90
11532;DHT22;5822;51.000;5.874;2023-05-10T08:39:16;16.40;99.90
11532;DHT22;5822;51.000;5.874;2023-05-10T08:41:45;16.40;99.90
11532;DHT22;5822;51.000;5.874;2023-05-10T08:44:12;16.40;99.90
11532;DHT22;5822;51.000;5.874;2023-05-10T08:46:40;16.50;99.90
11532;DHT22;5822;51.000;5.874;2023-05-10T08:49:13;16.60;99.90
11532;DHT22;5822;51.000;5.874;2023-05-10T08:51:47;16.60;99.90
11532;DHT22;5822;51.000;5.874;2023-05-10T08:54:15;16.50;99.90
11532;DHT22;5822;51.000;5.874;2023-05-10T08:56:44;16.60;99.90
11532;DHT22;5822;51.000;5.874;2023-05-10T08:59:09;16.60;99.90
11532;DHT22;5822;51.000;5.874;2023-05-10T09:01:37;16.60;99.90
11532;DHT22;5822;51.000;5.874;2023-05-10T09:04:05;16.60;99.90
11532;DHT22;5822;51.000;5.874;2023-05-10T09:06:31;16.60;99.90
11532;DHT22;5822;51.000;5.874;2023-05-10T09:08:57;16.60;99.90
11532;DHT22;5822;51.000;5.874;2023-05-10T09:11:24;16.60;99.90
11532;DHT22;5822;51.000;5.874;2023-05-10T09:13:50;16.70;99.90
11532;DHT22;5822;51.000;5.874;2023-05-10T09:16:17;16.70;99.90
11532;DHT22;5822;51.000;5.874;2023-05-10T09:18:43;16.90;99.90
11532;DHT22;5822;51.000;5.874;2023-05-10T09:21:09;16.90;99.90
11532;DHT22;5822;51.000;5.874;2023-05-10T09:23:35;16.80;99.90
11532;DHT22;5822;51.000;5.874;2023-05-10T09:26:07;16.90;99.90
11532;DHT22;5822;51.000;5.874;2023-05-10T09:28:52;16.90;99.90
11532;DHT22;5822;51.000;5.874;2023-05-10T09:31:19;16.80;99.90
11532;DHT22;5822;51.000;5.874;2023-05-10T09:33:46;16.90;99.90
11532;DHT22;5822;51.000;5.874;2023-05-10T09:36:13;16.90;99.90
11532;DHT22;5822;51.000;5.874;2023-05-10T09:38:52;16.90;99.90
11532;DHT22;5822;51.000;5.874;2023-05-10T09:41:24;16.80;99.90
11532;DHT22;5822;51.000;5.874;2023-05-10T09:43:53;16.90;99.90
11532;DHT22;5822;51.000;5.874;2023-05-10T09:46:21;16.80;99.90
11532;DHT22;5822;51.000;5.874;2023-05-10T09:48:47;16.80;99.90
11532;DHT22;5822;51.000;5.874;2023-05-10T09:51:24;16.80;99.90
11532;DHT22;5822;51.000;5.874;2023-05-10T09:54:13;16.80;99.90
11532;DHT22;5822;51.000;5.874;2023-05-10T09:56:39;16.80;99.90
11532;DHT22;5822;51.000;5.874;2023-05-10T09:59:07;16.80;99.90
11532;DHT22;5822;51.000;5.874;2023-05-10T10:01:34;16.90;99.90
11532;DHT22;5822;51.000;5.874;2023-05-10T10:04:03;17.00;99.90
11532;DHT22;5822;51.000;5.874;2023-05-10T10:06:34;17.00;99.90
11532;DHT22;5822;51.000;5.874;2023-05-10T10:09:00;17.00;99.90
11532;DHT22;5822;51.000;5.874;2023-05-10T10:11:26;17.10;99.90
11532;DHT22;5822;51.000;5.874;2023-05-10T10:13:51;17.20;99.90
11532;DHT22;5822;51.000;5.874;2023-05-10T10:16:17;17.20;99.90
11532;DHT22;5822;51.000;5.874;2023-05-10T10:18:43;17.20;99.90
11532;DHT22;5822;51.000;5.874;2023-05-10T10:21:09;17.30;99.90
11532;DHT22;5822;51.000;5.874;2023-05-10T10:23:35;17.20;99.90
11532;DHT22;5822;51.000;5.874;2023-05-10T10:26:03;17.40;99.90
11532;DHT22;5822;51.000;5.874;2023-05-10T10:29:01;17.40;99.90
11532;DHT22;5822;51.000;5.874;2023-05-10T10:31:46;17.40;99.90
11532;DHT22;5822;51.000;5.874;2023-05-10T10:34:32;17.40;99.90
11532;DHT22;5822;51.000;5.874;2023-05-10T10:37:04;17.50;99.90
11532;DHT22;5822;51.000;5.874;2023-05-10T10:39:31;17.50;99.90
11532;DHT22;5822;51.000;5.874;2023-05-10T10:41:57;17.60;99.90
11532;DHT22;5822;51.000;5.874;2023-05-10T10:44:33;17.50;99.90
11532;DHT22;5822;51.000;5.874;2023-05-10T10:52:14;17.50;99.90
11532;DHT22;5822;51.000;5.874;2023-05-10T10:54:57;17.60;99.90
11532;DHT22;5822;51.000;5.874;2023-05-10T10:57:25;17.70;99.90
11532;DHT22;5822;51.000;5.874;2023-05-10T11:02:48;17.70;99.90
11532;DHT22;5822;51.000;5.874;2023-05-10T11:07:55;17.90;99.90
11532;DHT22;5822;51.000;5.874;2023-05-10T11:10:22;17.90;99.90
11532;DHT22;5822;51.000;5.874;2023-05-10T11:13:05;17.90;99.90
11532;DHT22;5822;51.000;5.874;2023-05-10T11:15:31;17.90;99.90
11532;DHT22;5822;51.000;5.874;2023-05-10T11:17:57;17.90;99.90
11532;DHT22;5822;51.000;5.874;2023-05-10T11:20:23;17.90;99.90
11532;DHT22;5822;51.000;5.874;2023-05-10T11:23:00;17.80;99.90
11532;DHT22;5822;51.000;5.874;2023-05-10T11:25:44;17.80;99.90
11532;DHT22;5822;51.000;5.874;2023-05-10T11:28:13;17.80;99.90
11532;DHT22;5822;51.000;5.874;2023-05-10T11:30:40;17.70;99.90
11532;DHT22;5822;51.000;5.874;2023-05-10T11:33:07;17.70;99.90
11532;DHT22;5822;51.000;5.874;2023-05-10T11:35:42;17.80;99.90
11532;DHT22;5822;51.000;5.874;2023-05-10T11:38:12;17.90;99.90
11532;DHT22;5822;51.000;5.874;2023-05-10T11:40:38;17.90;99.90
11532;DHT22;5822;51.000;5.874;2023-05-10T11:43:04;17.90;99.90
11532;DHT22;5822;51.000;5.874;2023-05-10T11:45:35;17.90;99.90
11532;DHT22;5822;51.000;5.874;2023-05-10T11:48:01;18.00;99.90
11532;DHT22;5822;51.000;5.874;2023-05-10T11:50:27;17.90;99.90
11532;DHT22;5822;51.000;5.874;2023-05-10T11:52:56;18.00;99.90
11532;DHT22;5822;51.000;5.874;2023-05-10T11:55:23;18.00;99.90
11532;DHT22;5822;51.000;5.874;2023-05-10T11:57:53;18.00;99.90
11532;DHT22;5822;51.000;5.874;2023-05-10T12:00:19;18.00;99.90
11532;DHT22;5822;51.000;5.874;2023-05-10T12:02:46;18.00;99.90
11532;DHT22;5822;51.000;5.874;2023-05-10T12:05:11;18.00;99.90
11532;DHT22;5822;51.000;5.874;2023-05-10T12:07:38;18.00;99.90
11532;DHT22;5822;51.000;5.874;2023-05-10T12:10:04;18.00;99.90
11532;DHT22;5822;51.000;5.874;2023-05-10T12:12:42;18.00;99.90
11532;DHT22;5822;51.000;5.874;2023-05-10T12:15:18;18.10;99.90
11532;DHT22;5822;51.000;5.874;2023-05-10T12:17:45;18.10;99.90
11532;DHT22;5822;51.000;5.874;2023-05-10T12:20:19;18.10;99.90
11532;DHT22;5822;51.000;5.874;2023-05-10T12:22:56;18.10;99.90
11532;DHT22;5822;51.000;5.874;2023-05-10T12:25:24;18.20;99.90
11532;DHT22;5822;51.000;5.874;2023-05-10T12:27:57;18.20;99.90
11532;DHT22;5822;51.000;5.874;2023-05-10T12:30:27;18.20;99.90
11532;DHT22;5822;51.000;5.874;2023-05-10T12:32:58;18.20;99.90
11532;DHT22;5822;51.000;5.874;2023-05-10T12:35:24;18.30;99.90
11532;DHT22;5822;51.000;5.874;2023-05-10T12:37:53;18.30;99.90
11532;DHT22;5822;51.000;5.874;2023-05-10T12:40:18;18.30;99.90
11532;DHT22;5822;51.000;5.874;2023-05-10T12:42:44;18.40;99.90
11532;DHT22;5822;51.000;5.874;2023-05-10T12:45:10;18.40;99.90
11532;DHT22;5822;51.000;5.874;2023-05-10T12:47:36;18.40;99.90
11532;DHT22;5822;51.000;5.874;2023-05-10T12:50:03;18.50;99.90
11532;DHT22;5822;51.000;5.874;2023-05-10T12:52:29;18.50;99.90
11532;DHT22;5822;51.000;5.874;2023-05-10T12:54:54;18.50;99.90
11532;DHT22;5822;51.000;5.874;2023-05-10T12:57:20;18.60;99.90
11532;DHT22;5822;51.000;5.874;2023-05-10T12:59:47;18.60;99.90
11532;DHT22;5822;51.000;5.874;2023-05-10T13:02:12;18.60;99.90
11532;DHT22;5822;51.000;5.874;2023-05-10T13:04:40;18.60;99.90
11532;DHT22;5822;51.000;5.874;2023-05-10T13:07:06;18.70;99.90
11532;DHT22;5822;51.000;5.874;2023-05-10T13:09:32;18.60;99.90
11532;DHT22;5822;51.000;5.874;2023-05-10T13:11:58;18.70;99.90
11532;DHT22;5822;51.000;5.874;2023-05-10T13:14:24;18.80;99.90
11532;DHT22;5822;51.000;5.874;2023-05-10T13:16:50;18.80;99.90
11532;DHT22;5822;51.000;5.874;2023-05-10T13:19:16;18.90;99.90
11532;DHT22;5822;51.000;5.874;2023-05-10T13:21:42;18.90;99.90
11532;DHT22;5822;51.000;5.874;2023-05-10T13:24:07;18.80;99.90
11532;DHT22;5822;51.000;5.874;2023-05-10T13:26:33;18.80;99.90
11532;DHT22;5822;51.000;5.874;2023-05-10T13:28:59;18.80;99.90
11532;DHT22;5822;51.000;5.874;2023-05-10T13:31:25;18.80;99.90
11532;DHT22;5822;51.000;5.874;2023-05-10T13:33:51;18.80;99.90
11532;DHT22;5822;51.000;5.874;2023-05-10T13:36:17;18.80;99.90
11532;DHT22;5822;51.000;5.874;2023-05-10T13:38:42;18.70;99.90
11532;DHT22;5822;51.000;5.874;2023-05-10T13:41:08;18.70;99.90
11532;DHT22;5822;51.000;5.874;2023-05-10T13:43:33;18.70;99.90
11532;DHT22;5822;51.000;5.874;2023-05-10T13:45:59;18.70;99.90
11532;DHT22;5822;51.000;5.874;2023-05-10T13:48:25;18.70;99.90
11532;DHT22;5822;51.000;5.874;2023-05-10T13:50:53;18.70;99.90
11532;DHT22;5822;51.000;5.874;2023-05-10T13:53:19;18.60;99.90
11532;DHT22;5822;51.000;5.874;2023-05-10T13:55:45;18.60;99.90
11532;DHT22;5822;51.000;5.874;2023-05-10T13:58:10;18.60;99.90
11532;DHT22;5822;51.000;5.874;2023-05-10T14:00:36;18.50;99.90
11532;DHT22;5822;51.000;5.874;2023-05-10T14:03:01;18.40;99.90
11532;DHT22;5822;51.000;5.874;2023-05-10T14:05:27;18.40;99.90
11532;DHT22;5822;51.000;5.874;2023-05-10T14:07:53;18.40;99.90
11532;DHT22;5822;51.000;5.874;2023-05-10T14:10:19;18.40;99.90
11532;DHT22;5822;51.000;5.874;2023-05-10T14:12:45;18.40;99.90
11532;DHT22;5822;51.000;5.874;2023-05-10T14:15:11;18.30;99.90
11532;DHT22;5822;51.000;5.874;2023-05-10T14:17:37;18.30;99.90
11532;DHT22;5822;51.000;5.874;2023-05-10T14:20:03;18.30;99.90
11532;DHT22;5822;51.000;5.874;2023-05-10T14:22:29;18.30;99.90
11532;DHT22;5822;51.000;5.874;2023-05-10T14:24:55;18.40;99.90
11532;DHT22;5822;51.000;5.874;2023-05-10T14:27:20;18.40;99.90
11532;DHT22;5822;51.000;5.874;2023-05-10T14:29:47;18.30;99.90
11532;DHT22;5822;51.000;5.874;2023-05-10T14:32:13;18.30;99.90
11532;DHT22;5822;51.000;5.874;2023-05-10T14:34:38;18.40;99.90
11532;DHT22;5822;51.000;5.874;2023-05-10T14:37:04;18.30;99.90
11532;DHT22;5822;51.000;5.874;2023-05-10T14:39:30;18.30;99.90
11532;DHT22;5822;51.000;5.874;2023-05-10T14:41:56;18.30;99.90
11532;DHT22;5822;51.000;5.874;2023-05-10T14:44:21;18.30;99.90
11532;DHT22;5822;51.000;5.874;2023-05-10T14:46:47;18.40;99.90
11532;DHT22;5822;51.000;5.874;2023-05-10T14:49:14;18.30;99.90
11532;DHT22;5822;51.000;5.874;2023-05-10T14:51:39;18.30;99.90
11532;DHT22;5822;51.000;5.874;2023-05-10T14:54:05;18.30;99.90
11532;DHT22;5822;51.000;5.874;2023-05-10T14:56:31;18.20;99.90
11532;DHT22;5822;51.000;5.874;2023-05-10T14:58:57;18.20;99.90
11532;DHT22;5822;51.000;5.874;2023-05-10T15:01:22;18.20;99.90
11532;DHT22;5822;51.000;5.874;2023-05-10T15:03:48;18.10;99.90
11532;DHT22;5822;51.000;5.874;2023-05-10T15:06:14;18.10;99.90
11532;DHT22;5822;51.000;5.874;2023-05-10T15:08:43;18.10;99.90
11532;DHT22;5822;51.000;5.874;2023-05-10T15:11:09;18.10;99.90
11532;DHT22;5822;51.000;5.874;2023-05-10T15:13:34;18.10;99.90
11532;DHT22;5822;51.000;5.874;2023-05-10T15:16:01;18.10;99.90
11532;DHT22;5822;51.000;5.874;2023-05-10T15:18:26;18.10;99.90
11532;DHT22;5822;51.000;5.874;2023-05-10T15:20:52;18.20;99.90
11532;DHT22;5822;51.000;5.874;2023-05-10T15:23:17;18.20;99.90
11532;DHT22;5822;51.000;5.874;2023-05-10T15:25:43;18.20;99.90
11532;DHT22;5822;51.000;5.874;2023-05-10T15:28:09;18.20;99.90
11532;DHT22;5822;51.000;5.874;2023-05-10T15:30:34;18.10;99.90
11532;DHT22;5822;51.000;5.874;2023-05-10T15:33:00;18.10;99.90
11532;DHT22;5822;51.000;5.874;2023-05-10T15:35:26;18.10;99.90
11532;DHT22;5822;51.000;5.874;2023-05-10T15:37:52;18.10;99.90
11532;DHT22;5822;51.000;5.874;2023-05-10T15:40:17;18.10;99.90
11532;DHT22;5822;51.000;5.874;2023-05-10T15:42:43;18.10;99.90
11532;DHT22;5822;51.000;5.874;2023-05-10T15:45:10;18.10;99.90
11532;DHT22;5822;51.000;5.874;2023-05-10T15:47:36;18.20;99.90
11532;DHT22;5822;51.000;5.874;2023-05-10T15:50:01;18.20;99.90
11532;DHT22;5822;51.000;5.874;2023-05-10T15:52:28;18.20;99.90
11532;DHT22;5822;51.000;5.874;2023-05-10T15:54:53;18.20;99.90
11532;DHT22;5822;51.000;5.874;2023-05-10T15:57:19;18.30;99.90
11532;DHT22;5822;51.000;5.874;2023-05-10T15:59:45;18.20;99.90
11532;DHT22;5822;51.000;5.874;2023-05-10T16:02:10;18.30;99.90
11532;DHT22;5822;51.000;5.874;2023-05-10T16:04:36;18.30;99.90
11532;DHT22;5822;51.000;5.874;2023-05-10T16:07:02;18.20;99.90
11532;DHT22;5822;51.000;5.874;2023-05-10T16:09:28;18.30;99.90
11532;DHT22;5822;51.000;5.874;2023-05-10T16:11:54;18.10;99.90
11532;DHT22;5822;51.000;5.874;2023-05-10T16:14:19;18.10;99.90
11532;DHT22;5822;51.000;5.874;2023-05-10T16:16:49;18.10;99.90
11532;DHT22;5822;51.000;5.874;2023-05-10T16:19:14;18.10;99.90
11532;DHT22;5822;51.000;5.874;2023-05-10T16:21:40;18.20;99.90